createdAt,value
2022-12-09T00:01:49.069Z,45.17
2022-12-09T00:04:18.601Z,49.27
2022-12-09T00:06:47.179Z,47.33
2022-12-09T00:09:16.862Z,43.17
2022-12-09T00:11:45.213Z,42.17
2022-12-09T00:14:14.148Z,55.83
2022-12-09T00:16:43.151Z,49.00
2022-12-09T00:19:11.344Z,43.47
2022-12-09T00:21:42.576Z,43.00
2022-12-09T00:24:15.501Z,42.90
2022-12-09T00:26:44.697Z,44.20
2022-12-09T00:29:14.270Z,46.60
2022-12-09T00:31:43.331Z,44.30
2022-12-09T00:34:14.140Z,49.13
2022-12-09T00:36:41.982Z,45.33
2022-12-09T00:39:12.652Z,44.27
2022-12-09T00:41:40.578Z,44.90
2022-12-09T00:44:08.499Z,45.00
2022-12-09T00:46:36.450Z,42.80
2022-12-09T00:49:05.561Z,50.80
2022-12-09T00:51:33.231Z,39.77
2022-12-09T00:54:02.787Z,40.40
2022-12-09T00:56:31.898Z,44.70
2022-12-09T00:59:00.817Z,45.83
2022-12-09T01:01:36.434Z,44.80
2022-12-09T01:04:08.782Z,44.50
2022-12-09T01:06:36.678Z,42.77
2022-12-09T01:09:05.241Z,43.50
2022-12-09T01:11:33.814Z,41.80
2022-12-09T01:14:04.298Z,41.63
2022-12-09T01:16:35.840Z,43.03
2022-12-09T01:19:10.988Z,46.77
2022-12-09T01:21:38.916Z,40.00
2022-12-09T01:24:11.560Z,50.30
2022-12-09T01:26:39.957Z,38.60
2022-12-09T01:29:07.900Z,37.43
2022-12-09T01:31:36.646Z,40.93
2022-12-09T01:34:05.150Z,41.60
2022-12-09T01:36:33.139Z,37.23
2022-12-09T01:39:01.529Z,42.77
2022-12-09T01:41:29.604Z,34.67
2022-12-09T01:44:27.495Z,41.03
2022-12-09T01:47:02.501Z,38.50
2022-12-09T01:49:43.408Z,40.07
2022-12-09T01:52:22.684Z,39.00
2022-12-09T01:54:53.711Z,37.90
2022-12-09T01:57:21.676Z,46.60
2022-12-09T01:59:50.059Z,44.90
2022-12-09T02:02:21.420Z,45.87
2022-12-09T02:04:51.242Z,40.00
2022-12-09T02:07:21.149Z,43.40
2022-12-09T02:09:53.750Z,50.07
2022-12-09T02:13:20.409Z,49.80
2022-12-09T02:16:02.593Z,49.67
2022-12-09T02:19:01.254Z,49.53
2022-12-09T02:22:12.101Z,50.33
2022-12-09T02:25:02.890Z,48.87
2022-12-09T02:28:45.938Z,52.03
2022-12-09T02:32:16.512Z,45.17
2022-12-09T02:35:30.379Z,49.73
2022-12-09T02:38:23.977Z,53.30
2022-12-09T02:41:25.754Z,54.70
2022-12-09T02:44:07.421Z,52.70
2022-12-09T02:46:37.893Z,48.53
2022-12-09T02:49:09.745Z,42.57
2022-12-09T02:51:42.462Z,45.73
2022-12-09T02:54:19.669Z,45.00
2022-12-09T02:57:05.756Z,40.77
2022-12-09T02:59:33.761Z,45.90
2022-12-09T03:02:36.621Z,42.27
2022-12-09T03:05:36.753Z,36.30
2022-12-09T03:08:44.175Z,42.00
2022-12-09T03:11:20.090Z,41.33
2022-12-09T03:14:25.453Z,36.07
2022-12-09T03:17:35.730Z,36.10
2022-12-09T03:20:31.181Z,41.90
2022-12-09T03:23:06.438Z,43.53
2022-12-09T03:25:50.968Z,36.07
2022-12-09T03:28:36.704Z,42.53
2022-12-09T03:31:14.850Z,34.83
2022-12-09T03:33:52.862Z,38.23
2022-12-09T03:36:24.968Z,40.53
2022-12-09T03:38:55.592Z,31.23
2022-12-09T03:41:33.630Z,40.43
2022-12-09T03:44:28.680Z,36.03
2022-12-09T03:46:57.388Z,44.27
2022-12-09T03:49:25.948Z,37.90
2022-12-09T03:52:37.406Z,32.20
2022-12-09T03:55:37.503Z,36.60
2022-12-09T03:58:08.374Z,37.93
2022-12-09T04:00:39.998Z,40.20
2022-12-09T04:03:09.290Z,41.53
2022-12-09T04:05:38.979Z,43.10
2022-12-09T04:08:07.893Z,37.77
2022-12-09T04:10:35.831Z,36.27
2022-12-09T04:13:03.836Z,36.43
2022-12-09T04:15:31.599Z,39.13
2022-12-09T04:17:59.252Z,38.47
2022-12-09T04:20:26.979Z,43.80
2022-12-09T04:22:56.300Z,37.37
2022-12-09T04:25:24.228Z,38.97
2022-12-09T04:27:52.204Z,46.93
2022-12-09T04:30:19.996Z,44.23
2022-12-09T04:32:47.665Z,37.27
2022-12-09T04:35:15.611Z,41.20
2022-12-09T04:37:43.262Z,41.97
2022-12-09T04:40:18.218Z,33.40
2022-12-09T04:42:49.552Z,37.03
2022-12-09T04:45:17.359Z,40.73
2022-12-09T04:47:45.104Z,36.97
2022-12-09T04:50:14.192Z,45.57
2022-12-09T04:52:42.434Z,37.47
2022-12-09T04:55:13.201Z,40.17
2022-12-09T04:57:40.845Z,44.13
2022-12-09T05:00:11.371Z,43.97
2022-12-09T05:02:39.677Z,43.03
2022-12-09T05:05:08.617Z,46.90
2022-12-09T05:07:36.749Z,44.27
2022-12-09T05:10:05.644Z,38.70
2022-12-09T05:12:34.950Z,40.23
2022-12-09T05:15:04.043Z,43.97
2022-12-09T05:17:31.886Z,50.27
2022-12-09T05:19:59.750Z,39.73
2022-12-09T05:22:27.761Z,43.33
2022-12-09T05:24:56.002Z,39.90
2022-12-09T05:27:24.067Z,40.10
2022-12-09T05:29:52.050Z,38.20
2022-12-09T05:32:19.974Z,48.80
2022-12-09T05:34:47.968Z,38.60
2022-12-09T05:37:17.231Z,41.07
2022-12-09T05:39:44.860Z,41.13
2022-12-09T05:42:12.719Z,41.90
2022-12-09T05:44:40.605Z,41.33
2022-12-09T05:47:08.630Z,37.33
2022-12-09T05:49:36.498Z,41.67
2022-12-09T05:52:04.997Z,38.93
2022-12-09T05:54:33.081Z,39.00
2022-12-09T05:57:01.449Z,34.00
2022-12-09T05:59:29.389Z,35.50
2022-12-09T06:01:57.352Z,38.53
2022-12-09T06:04:25.455Z,37.80
2022-12-09T06:06:53.672Z,36.30
2022-12-09T06:09:21.848Z,41.87
2022-12-09T06:11:49.707Z,38.87
2022-12-09T06:14:17.304Z,39.20
2022-12-09T06:16:45.418Z,44.87
2022-12-09T06:19:13.923Z,40.43
2022-12-09T06:21:43.052Z,39.13
2022-12-09T06:24:11.144Z,41.93
2022-12-09T06:26:38.822Z,38.77
2022-12-09T06:29:06.607Z,41.27
2022-12-09T06:31:34.263Z,45.70
2022-12-09T06:34:02.254Z,43.97
2022-12-09T06:36:32.094Z,41.77
2022-12-09T06:39:10.024Z,40.70
2022-12-09T06:41:43.271Z,45.40
2022-12-09T06:44:19.881Z,45.80
2022-12-09T06:46:51.275Z,43.00
2022-12-09T06:49:19.311Z,47.47
2022-12-09T06:51:47.867Z,35.53
2022-12-09T06:54:16.007Z,40.10
2022-12-09T06:56:44.240Z,41.10
2022-12-09T06:59:12.655Z,39.53
2022-12-09T07:01:40.766Z,45.03
2022-12-09T07:04:13.446Z,36.60
2022-12-09T07:06:46.138Z,44.27
2022-12-09T07:09:22.124Z,41.30
2022-12-09T07:11:50.898Z,39.47
2022-12-09T07:14:20.130Z,37.70
2022-12-09T07:16:48.631Z,38.67
2022-12-09T07:19:23.529Z,43.87
2022-12-09T07:21:52.448Z,39.80
2022-12-09T07:24:20.802Z,40.20
2022-12-09T07:26:50.129Z,39.50
2022-12-09T07:29:19.384Z,37.80
2022-12-09T07:31:48.599Z,38.70
2022-12-09T07:34:17.633Z,38.50
2022-12-09T07:36:45.469Z,39.60
2022-12-09T07:39:19.197Z,41.93
2022-12-09T07:41:57.000Z,38.07
2022-12-09T07:44:29.789Z,35.43
2022-12-09T07:46:58.538Z,42.10
2022-12-09T07:49:26.636Z,43.10
2022-12-09T07:51:54.815Z,46.23
2022-12-09T07:54:23.161Z,43.13
2022-12-09T07:56:51.267Z,41.20
2022-12-09T07:59:19.239Z,41.43
2022-12-09T08:01:47.423Z,35.77
2022-12-09T08:04:15.426Z,40.53
2022-12-09T08:06:43.563Z,40.57
2022-12-09T08:09:14.799Z,40.90
2022-12-09T08:11:43.462Z,40.03
2022-12-09T08:14:13.540Z,46.83
2022-12-09T08:16:43.596Z,44.00
2022-12-09T08:19:13.558Z,40.63
2022-12-09T08:21:42.715Z,42.20
2022-12-09T08:24:13.234Z,39.33
2022-12-09T08:26:42.370Z,39.70
2022-12-09T08:29:14.645Z,41.27
2022-12-09T08:31:44.360Z,35.97
2022-12-09T08:34:14.543Z,31.60
2022-12-09T08:36:43.701Z,46.70
2022-12-09T08:39:14.857Z,38.63
2022-12-09T08:41:44.657Z,48.27
2022-12-09T08:44:21.002Z,40.03
2022-12-09T08:46:52.800Z,39.13
2022-12-09T08:49:23.327Z,40.43
2022-12-09T08:51:53.876Z,44.77
2022-12-09T08:54:22.611Z,51.57
2022-12-09T08:56:56.040Z,45.30
2022-12-09T08:59:25.264Z,44.03
2022-12-09T09:01:54.537Z,38.40
2022-12-09T09:04:24.053Z,45.70
2022-12-09T09:06:52.675Z,44.20
2022-12-09T09:09:22.639Z,55.73
2022-12-09T09:11:52.794Z,54.40
2022-12-09T09:14:21.261Z,51.63
2022-12-09T09:16:49.980Z,55.30
2022-12-09T09:19:26.715Z,51.73
2022-12-09T09:21:56.273Z,44.53
2022-12-09T09:24:26.705Z,56.33
2022-12-09T09:26:55.418Z,45.97
2022-12-09T09:29:24.774Z,47.33
2022-12-09T09:31:56.402Z,42.50
2022-12-09T09:34:28.066Z,38.03
2022-12-09T09:36:57.027Z,38.77
2022-12-09T09:39:25.926Z,35.50
2022-12-09T09:42:08.345Z,35.33
2022-12-09T09:44:55.645Z,40.60
2022-12-09T09:48:06.436Z,37.83
2022-12-09T09:50:53.731Z,37.63
2022-12-09T09:53:35.813Z,35.63
2022-12-09T09:57:03.664Z,39.87
2022-12-09T10:00:13.239Z,37.97
2022-12-09T10:03:04.937Z,36.17
2022-12-09T10:06:06.043Z,34.20
2022-12-09T10:09:39.393Z,31.90
2022-12-09T10:13:08.369Z,36.70
2022-12-09T10:16:15.360Z,36.60
2022-12-09T10:19:12.207Z,31.50
2022-12-09T10:21:48.198Z,30.70
2022-12-09T10:24:39.176Z,25.30
2022-12-09T10:27:51.235Z,39.50
2022-12-09T10:30:21.654Z,37.60
2022-12-09T10:32:50.206Z,24.50
2022-12-09T10:35:29.803Z,27.63
2022-12-09T10:38:17.475Z,27.10
2022-12-09T10:40:55.240Z,27.57
2022-12-09T10:43:44.172Z,31.67
2022-12-09T10:46:19.591Z,26.27
2022-12-09T10:48:49.087Z,25.07
2022-12-09T10:51:36.400Z,31.80
2022-12-09T10:54:44.872Z,25.13
2022-12-09T10:57:12.823Z,32.97
2022-12-09T10:59:59.372Z,26.77
2022-12-09T11:02:32.879Z,29.80
2022-12-09T11:05:30.335Z,24.33
2022-12-09T11:08:00.490Z,26.60
2022-12-09T11:10:31.102Z,24.27
2022-12-09T11:13:15.370Z,30.17
2022-12-09T11:16:01.249Z,21.53
2022-12-09T11:18:48.297Z,21.10
2022-12-09T11:21:37.194Z,24.50
2022-12-09T11:24:24.912Z,24.17
2022-12-09T11:26:53.025Z,21.63
2022-12-09T11:29:22.129Z,23.23
2022-12-09T11:31:50.771Z,24.03
2022-12-09T11:34:28.019Z,22.50
2022-12-09T11:36:59.357Z,19.83
2022-12-09T11:39:33.570Z,28.37
2022-12-09T11:42:24.929Z,24.70
2022-12-09T11:45:06.127Z,25.57
2022-12-09T11:50:42.485Z,28.47
2022-12-09T11:53:13.243Z,27.73
2022-12-09T11:56:25.799Z,23.83
2022-12-09T11:59:51.288Z,17.90
2022-12-09T12:02:40.801Z,22.20
2022-12-09T12:05:43.508Z,18.50
2022-12-09T12:08:47.730Z,17.27
2022-12-09T12:11:38.768Z,19.33
2022-12-09T12:14:23.416Z,20.87
2022-12-09T12:17:33.724Z,22.13
2022-12-09T12:20:02.627Z,25.30
2022-12-09T12:23:32.992Z,21.53
2022-12-09T12:26:26.533Z,24.10
2022-12-09T12:29:45.367Z,19.43
2022-12-09T12:33:40.816Z,19.50
2022-12-09T12:36:11.542Z,27.17
2022-12-09T12:39:34.950Z,16.60
2022-12-09T12:43:10.514Z,17.30
2022-12-09T12:46:20.006Z,27.50
2022-12-09T12:49:51.081Z,23.00
2022-12-09T12:53:44.713Z,22.67
2022-12-09T12:56:23.183Z,25.53
2022-12-09T12:59:51.199Z,24.93
2022-12-09T13:03:21.205Z,25.40
2022-12-09T13:05:57.193Z,25.77
2022-12-09T13:08:58.406Z,33.07
2022-12-09T13:12:03.752Z,30.10
2022-12-09T13:14:55.784Z,35.53
2022-12-09T13:17:29.919Z,23.87
2022-12-09T13:20:04.076Z,17.23
2022-12-09T13:23:16.870Z,23.97
2022-12-09T13:26:41.642Z,19.80
2022-12-09T13:29:42.595Z,21.90
2022-12-09T13:33:10.702Z,17.23
2022-12-09T13:36:15.480Z,26.73
2022-12-09T13:38:44.152Z,25.47
2022-12-09T13:41:26.662Z,24.77
2022-12-09T13:44:18.942Z,20.70
2022-12-09T13:46:46.886Z,23.63
2022-12-09T13:49:24.630Z,17.10
2022-12-09T13:51:56.150Z,16.43
2022-12-09T13:54:29.668Z,16.80
2022-12-09T13:57:51.226Z,16.27
2022-12-09T14:00:20.042Z,38.80
2022-12-09T14:03:22.082Z,20.47
2022-12-09T14:05:54.791Z,23.07
2022-12-09T14:08:46.078Z,23.77
2022-12-09T14:11:38.536Z,20.43
2022-12-09T14:14:24.153Z,17.17
2022-12-09T14:17:04.266Z,22.03
2022-12-09T14:19:33.887Z,25.07
2022-12-09T14:22:21.350Z,19.70
2022-12-09T14:24:54.961Z,18.70
2022-12-09T14:27:32.171Z,19.87
2022-12-09T14:30:24.271Z,21.27
2022-12-09T14:32:54.978Z,19.37
2022-12-09T14:35:44.806Z,20.70
2022-12-09T14:39:07.786Z,41.27
2022-12-09T14:42:08.306Z,58.37
2022-12-09T14:45:42.907Z,67.83
2022-12-09T14:48:21.571Z,34.10
2022-12-09T14:51:26.198Z,33.10
2022-12-09T14:54:29.129Z,26.47
2022-12-09T14:57:07.381Z,28.00
2022-12-09T14:59:35.710Z,30.37
2022-12-09T15:02:09.464Z,31.50
2022-12-09T15:04:48.905Z,30.50
2022-12-09T15:07:32.915Z,34.93
2022-12-09T15:10:32.104Z,34.63
2022-12-09T15:13:02.180Z,32.27
2022-12-09T15:15:39.630Z,35.93
2022-12-09T15:18:25.517Z,41.37
2022-12-09T15:21:01.660Z,39.60
2022-12-09T15:23:39.489Z,51.37
2022-12-09T15:26:29.650Z,45.33
2022-12-09T15:29:01.140Z,52.37
2022-12-09T15:31:32.794Z,48.50
2022-12-09T15:34:20.432Z,48.17
2022-12-09T15:37:06.358Z,48.90
2022-12-09T15:40:05.145Z,45.13
2022-12-09T15:42:38.638Z,52.30
2022-12-09T15:45:16.903Z,49.20
2022-12-09T15:48:20.146Z,50.03
2022-12-09T15:51:06.185Z,44.07
2022-12-09T15:53:57.228Z,44.60
2022-12-09T15:57:02.015Z,46.73
2022-12-09T15:59:43.782Z,46.17
2022-12-09T16:02:33.719Z,49.07
2022-12-09T16:05:10.402Z,50.60
2022-12-09T16:07:52.206Z,49.43
2022-12-09T16:10:26.701Z,52.43
2022-12-09T16:13:17.409Z,43.20
2022-12-09T16:15:59.687Z,46.70
2022-12-09T16:18:47.146Z,53.07
2022-12-09T16:21:36.494Z,56.20
2022-12-09T16:24:13.648Z,44.23
2022-12-09T16:26:51.081Z,45.53
2022-12-09T16:29:33.480Z,52.63
2022-12-09T16:32:23.385Z,45.00
2022-12-09T16:35:45.441Z,50.13
2022-12-09T16:38:19.466Z,52.13
2022-12-09T16:40:47.014Z,53.87
2022-12-09T16:43:21.312Z,69.47
2022-12-09T16:46:22.953Z,74.43
2022-12-09T16:48:50.861Z,57.30
2022-12-09T16:51:25.490Z,46.50
2022-12-09T16:53:56.115Z,47.57
2022-12-09T16:56:31.838Z,42.80
2022-12-09T16:59:00.197Z,52.73
2022-12-09T17:01:38.198Z,55.27
2022-12-09T17:04:30.044Z,48.00
2022-12-09T17:06:57.867Z,44.00
2022-12-09T17:09:25.470Z,47.20
2022-12-09T17:11:53.077Z,52.73
2022-12-09T17:14:20.655Z,58.67
2022-12-09T17:16:48.361Z,73.87
2022-12-09T17:19:18.910Z,80.27
2022-12-09T17:21:46.524Z,87.30
2022-12-09T17:24:14.158Z,102.03
2022-12-09T17:26:41.759Z,95.57
2022-12-09T17:29:09.588Z,106.37
2022-12-09T17:31:37.230Z,85.90
2022-12-09T17:34:04.893Z,84.27
2022-12-09T17:36:32.508Z,90.37
2022-12-09T17:39:06.168Z,82.23
2022-12-09T17:41:33.845Z,86.37
2022-12-09T17:44:01.949Z,76.80
2022-12-09T17:46:29.744Z,84.60
2022-12-09T17:49:01.205Z,49.87
2022-12-09T17:51:35.442Z,72.57
2022-12-09T17:54:05.284Z,64.30
2022-12-09T17:56:33.306Z,71.33
2022-12-09T17:59:12.400Z,85.57
2022-12-09T18:01:41.268Z,70.67
2022-12-09T18:04:10.766Z,80.07
2022-12-09T18:06:44.891Z,79.23
2022-12-09T18:09:20.021Z,72.97
2022-12-09T18:11:48.743Z,79.73
2022-12-09T18:14:18.021Z,87.63
2022-12-09T18:16:52.142Z,73.90
2022-12-09T18:19:20.792Z,75.93
2022-12-09T18:21:48.991Z,77.00
2022-12-09T18:24:20.034Z,76.63
2022-12-09T18:26:49.903Z,75.60
2022-12-09T18:29:17.683Z,74.80
2022-12-09T18:31:54.215Z,78.17
2022-12-09T18:34:30.843Z,75.47
2022-12-09T18:36:58.730Z,72.50
2022-12-09T18:39:26.291Z,66.33
2022-12-09T18:41:54.173Z,80.83
2022-12-09T18:44:21.848Z,69.40
2022-12-09T18:46:51.151Z,78.80
2022-12-09T18:49:28.383Z,67.63
2022-12-09T18:51:56.491Z,61.80
2022-12-09T18:54:29.035Z,58.40
2022-12-09T18:56:57.256Z,63.73
2022-12-09T18:59:25.616Z,72.17
2022-12-09T19:01:54.191Z,67.93
2022-12-09T19:04:29.548Z,69.73
2022-12-09T19:07:00.748Z,62.57
2022-12-09T19:09:34.819Z,57.97
2022-12-09T19:14:53.767Z,59.53
2022-12-09T19:17:21.888Z,67.53
2022-12-09T19:19:49.816Z,57.77
2022-12-09T19:22:17.526Z,63.07
2022-12-09T19:24:45.339Z,63.00
2022-12-09T19:27:13.555Z,69.80
2022-12-09T19:29:41.231Z,71.70
2022-12-09T19:32:29.609Z,66.53
2022-12-09T19:34:56.395Z,61.47
2022-12-09T19:37:24.534Z,65.57
2022-12-09T19:39:52.218Z,76.17
2022-12-09T19:42:19.991Z,63.67
2022-12-09T19:45:10.605Z,62.90
2022-12-09T19:47:38.442Z,69.40
2022-12-09T19:50:07.734Z,73.77
2022-12-09T19:52:35.550Z,63.97
2022-12-09T19:55:03.853Z,78.57
2022-12-09T19:57:31.463Z,69.80
2022-12-09T19:59:59.038Z,61.60
2022-12-09T20:02:26.630Z,56.80
2022-12-09T20:04:55.021Z,65.80
2022-12-09T20:07:22.653Z,70.60
2022-12-09T20:09:50.364Z,59.93
2022-12-09T20:12:17.976Z,63.50
2022-12-09T20:14:45.604Z,62.80
2022-12-09T20:17:13.280Z,61.23
2022-12-09T20:19:40.818Z,60.10
2022-12-09T20:22:08.546Z,62.97
2022-12-09T20:24:36.291Z,61.27
2022-12-09T20:27:03.941Z,69.50
2022-12-09T20:29:37.220Z,68.00
2022-12-09T20:32:09.295Z,63.00
2022-12-09T20:34:40.640Z,74.97
2022-12-09T20:37:08.573Z,66.07
2022-12-09T20:39:36.387Z,74.00
2022-12-09T20:42:04.259Z,79.37
2022-12-09T20:44:33.432Z,70.90
2022-12-09T20:47:01.906Z,67.07
2022-12-09T20:49:30.315Z,64.37
2022-12-09T20:51:58.660Z,67.23
2022-12-09T20:54:26.609Z,69.17
2022-12-09T20:56:54.998Z,71.53
2022-12-09T20:59:23.864Z,65.23
2022-12-09T21:01:54.184Z,68.67
2022-12-09T21:04:23.397Z,65.43
2022-12-09T21:06:51.872Z,64.33
2022-12-09T21:09:22.992Z,62.77
2022-12-09T21:11:53.230Z,64.47
2022-12-09T21:14:21.495Z,70.27
2022-12-09T21:16:52.412Z,70.67
2022-12-09T21:19:25.106Z,72.37
2022-12-09T21:21:54.719Z,73.13
2022-12-09T21:24:25.488Z,76.23
2022-12-09T21:26:55.537Z,64.10
2022-12-09T21:29:31.251Z,84.63
2022-12-09T21:32:01.658Z,75.40
2022-12-09T21:34:30.127Z,71.57
2022-12-09T21:36:58.897Z,64.43
2022-12-09T21:39:28.247Z,78.40
2022-12-09T21:41:55.933Z,82.50
2022-12-09T21:44:25.636Z,84.30
2022-12-09T21:46:53.721Z,79.90
2022-12-09T21:49:22.092Z,86.63
2022-12-09T21:51:49.640Z,79.77
2022-12-09T21:54:17.280Z,90.00
2022-12-09T21:56:44.880Z,76.83
2022-12-09T21:59:13.570Z,90.57
2022-12-09T22:01:43.365Z,94.87
2022-12-09T22:04:16.523Z,80.53
2022-12-09T22:06:51.052Z,73.93
2022-12-09T22:09:21.192Z,73.90
2022-12-09T22:11:49.307Z,71.87
2022-12-09T22:14:16.969Z,68.43
2022-12-09T22:16:46.554Z,80.30
2022-12-09T22:19:21.089Z,72.27
2022-12-09T22:21:49.973Z,73.83
2022-12-09T22:24:19.169Z,77.00
2022-12-09T22:26:47.257Z,65.13
2022-12-09T22:29:18.270Z,77.57
2022-12-09T22:31:47.513Z,79.63
2022-12-09T22:34:21.043Z,77.70
2022-12-09T22:36:50.200Z,70.90
2022-12-09T22:39:24.312Z,78.67
2022-12-09T22:41:52.250Z,65.20
2022-12-09T22:44:21.312Z,86.20
2022-12-09T22:46:49.542Z,75.73
2022-12-09T22:49:19.212Z,67.73
2022-12-09T22:51:48.512Z,71.23
2022-12-09T22:54:18.013Z,79.60
2022-12-09T22:56:46.118Z,73.63
2022-12-09T22:59:15.744Z,90.97
2022-12-09T23:01:49.467Z,100.57
2022-12-09T23:04:22.041Z,81.57
2022-12-09T23:06:51.432Z,74.57
2022-12-09T23:09:25.256Z,78.10
2022-12-09T23:11:53.787Z,76.37
2022-12-09T23:14:21.928Z,82.90
2022-12-09T23:16:49.782Z,85.53
2022-12-09T23:19:17.482Z,82.07
2022-12-09T23:21:45.811Z,64.63
2022-12-09T23:24:22.825Z,75.80
2022-12-09T23:26:55.714Z,73.77
2022-12-09T23:29:23.829Z,87.67
2022-12-09T23:31:51.509Z,82.67
2022-12-09T23:34:28.221Z,68.30
2022-12-09T23:36:56.156Z,78.53
2022-12-09T23:39:23.796Z,73.20
2022-12-09T23:41:51.434Z,102.27
2022-12-09T23:44:20.034Z,80.23
2022-12-09T23:46:48.670Z,80.10
2022-12-09T23:49:17.476Z,78.73
2022-12-09T23:51:45.709Z,78.80
2022-12-09T23:54:17.259Z,75.90
2022-12-09T23:56:52.626Z,93.80
2022-12-09T23:59:23.622Z,90.50
